Willamette Champion — WDF3270 — position and weather

sailwx.info

Track history (hours):
 
Tides and Currents Weather Stations Pressure Air Temp Water Temp Dewpoint Dewpoint Depression Visibility Wind Speed Wind Dir Waves Ship Positions

Willamette Champion

Owner: Harley Marine Services, INC, Seattle, WA. More information available from US FCC via Universal Licensing System and Coast Guard Vessel Documentation Center.

Last reported at 2017-Dec-18 00:07 UTC. Time now 2017-Dec-18 16:59 UTC.
Position N 45°36' W 122°04'.

Length 27 m.

Type: Towing. MMSI: 2533572.

Date/timePositionNaut miles runAvg speedWind from/ knotsBaromVisibWave heightAir tempDewpointWater temp
2017-Dec-18 00:07N 45°36' W 122°04'1 8.4
2017-Dec-17 23:58N 45°35' W 122°05'5 7.8
2017-Dec-17 23:21N 45°34' W 122°12'3 8.1
2017-Dec-17 23:00N 45°33' W 122°16'4 7.5
2017-Dec-17 22:30N 45°34' W 122°21'3 6.3
2017-Dec-17 22:00N 45°34' W 122°25'4 7.0
2017-Dec-17 21:30N 45°35' W 122°30'4 7.4
2017-Dec-17 21:00N 45°36' W 122°35'4 7.7
2017-Dec-17 20:30N 45°37' W 122°41'4 7.9
2017-Dec-17 20:00N 45°39' W 122°45'3 7.0
2017-Dec-17 19:30N 45°36' W 122°47'1 2.2
2017-Dec-17 19:00N 45°35' W 122°46'0 0.0
2017-Dec-17 18:30N 45°35' W 122°46'0 0.0
2017-Dec-17 18:00N 45°35' W 122°46'0 0.0
2017-Dec-17 17:03N 45°35' W 122°46'0 0.0
2017-Dec-17 17:00N 45°35' W 122°46'0 0.0
2017-Dec-17 16:30N 45°35' W 122°46'0 0.0
2017-Dec-17 16:00N 45°35' W 122°46'0 0.0
2017-Dec-17 15:30N 45°35' W 122°46'0 0.0
2017-Dec-17 15:01N 45°35' W 122°46'0 0.0
2017-Dec-17 14:30N 45°35' W 122°46'0 0.0
2017-Dec-17 14:00N 45°35' W 122°46'0 0.0
2017-Dec-17 13:31N 45°35' W 122°46'0 0.0
2017-Dec-17 13:00N 45°35' W 122°46'0 0.0
2017-Dec-17 12:30N 45°35' W 122°46'0 0.0
2017-Dec-17 12:01N 45°35' W 122°46'0 0.0
2017-Dec-17 11:30N 45°35' W 122°46'0 0.0
2017-Dec-17 11:00N 45°35' W 122°46'0 0.0
2017-Dec-17 10:31N 45°35' W 122°46'0 0.0
2017-Dec-17 10:00N 45°35' W 122°46'0 0.0
2017-Dec-17 09:30N 45°35' W 122°46'0 0.0
2017-Dec-17 09:00N 45°35' W 122°46'0 0.0
2017-Dec-17 08:30N 45°35' W 122°46'0 0.0
2017-Dec-17 08:00N 45°35' W 122°46'0 0.0
2017-Dec-17 07:30N 45°35' W 122°46'0 0.0
2017-Dec-17 07:01N 45°35' W 122°46'0 0.0
2017-Dec-17 06:30N 45°35' W 122°46'0 0.0
2017-Dec-17 06:00N 45°35' W 122°46'0 0.0
2017-Dec-17 05:30N 45°35' W 122°46'0 0.0
2017-Dec-17 05:00N 45°35' W 122°46'0 0.0
2017-Dec-17 04:30N 45°35' W 122°46'0 0.0
2017-Dec-17 03:52N 45°35' W 122°46'0 0.0
2017-Dec-17 03:30N 45°35' W 122°46'0 0.0
2017-Dec-17 03:00N 45°35' W 122°46'0 0.0
2017-Dec-17 02:30N 45°35' W 122°46'0 0.0
2017-Dec-17 02:01N 45°35' W 122°46'0 0.0
2017-Dec-17 01:30N 45°35' W 122°46'0 0.2
2017-Dec-17 01:00N 45°35' W 122°45'2 3.6
2017-Dec-17 00:25N 45°34' W 122°43'3 7.8
2017-Dec-17 00:00N 45°31' W 122°40'2 3.5
2017-Dec-16 23:30N 45°29' W 122°40'2 4.7
2017-Dec-16 23:00N 45°32' W 122°40'3 5.0
2017-Dec-16 22:30N 45°33' W 122°43'2 4.8
2017-Dec-16 22:00N 45°35' W 122°46'3 5.8
2017-Dec-16 21:30N 45°33' W 122°42'3 6.1
2017-Dec-16 21:00N 45°30' W 122°40'1 2.3
2017-Dec-16 20:30N 45°29' W 122°40'4 7.4
2017-Dec-16 20:00N 45°33' W 122°42'1 2.4
2017-Dec-16 19:30N 45°33' W 122°43'0 0.2
2017-Dec-16 19:01N 45°33' W 122°43'0 0.2
2017-Dec-16 18:30N 45°33' W 122°43'0 0.3
2017-Dec-16 18:01N 45°33' W 122°43'2 4.6
2017-Dec-16 17:30N 45°35' W 122°45'0 0.2
2017-Dec-16 17:00N 45°35' W 122°46'0 0.0
2017-Dec-16 16:31N 45°35' W 122°46'0 0.0
2017-Dec-16 16:00N 45°35' W 122°46'0 0.0
2017-Dec-16 15:30N 45°35' W 122°46'0 0.0
2017-Dec-16 15:00N 45°35' W 122°46'0 0.0
2017-Dec-16 14:30N 45°35' W 122°46'0 0.0
2017-Dec-16 14:00N 45°35' W 122°46'0 0.0
2017-Dec-16 13:30N 45°35' W 122°46'0 0.0
2017-Dec-16 13:00N 45°35' W 122°46'0 0.0
2017-Dec-16 12:30N 45°35' W 122°46'0 0.0
2017-Dec-16 12:00N 45°35' W 122°46'0 0.0
2017-Dec-16 11:30N 45°35' W 122°46'0 0.0
2017-Dec-16 11:00N 45°35' W 122°46'0 0.0
2017-Dec-16 10:30N 45°35' W 122°46'0 0.0
2017-Dec-16 10:00N 45°35' W 122°46'0 0.0
2017-Dec-16 09:30N 45°35' W 122°46'0 0.0
2017-Dec-16 09:00N 45°35' W 122°46'0 0.0
2017-Dec-16 08:30N 45°35' W 122°46'0 0.0
2017-Dec-16 08:00N 45°35' W 122°46'0 0.0
2017-Dec-16 07:30N 45°35' W 122°46'0 0.0
2017-Dec-16 07:00N 45°35' W 122°46'0 0.0
2017-Dec-16 06:30N 45°35' W 122°46'0 0.0
2017-Dec-16 06:00N 45°35' W 122°46'0 0.0
2017-Dec-16 05:30N 45°35' W 122°46'0 0.0
2017-Dec-16 04:54N 45°35' W 122°46'0 0.0
2017-Dec-16 04:30N 45°35' W 122°46'0 0.0
2017-Dec-16 04:00N 45°35' W 122°46'0 0.0
2017-Dec-16 03:30N 45°35' W 122°46'0 0.0
2017-Dec-16 03:00N 45°35' W 122°46'0 0.0
2017-Dec-16 02:30N 45°35' W 122°46'0 0.0
2017-Dec-16 02:00N 45°35' W 122°46'0 0.0
2017-Dec-16 01:30N 45°35' W 122°46'0 0.0
2017-Dec-16 01:00N 45°35' W 122°46'0 0.0
2017-Dec-16 00:30N 45°35' W 122°46'0 0.0
2017-Dec-16 00:00N 45°35' W 122°46'0 0.0
2017-Dec-15 23:30N 45°35' W 122°46'0 0.0
2017-Dec-15 22:52N 45°35' W 122°46'0 0.0
2017-Dec-15 21:20N 45°35' W 122°46'0 0.0
2017-Dec-15 21:00N 45°35' W 122°46'0 0.0
2017-Dec-15 20:16N 45°35' W 122°46'0 0.0
2017-Dec-15 20:00N 45°35' W 122°46'0 0.0
2017-Dec-15 19:21N 45°35' W 122°46'0 0.0
2017-Dec-15 19:00N 45°35' W 122°46'0 0.0
2017-Dec-15 18:30N 45°35' W 122°46'0 0.0
2017-Dec-15 18:00N 45°35' W 122°46'0 0.0
2017-Dec-15 17:30N 45°35' W 122°46'0 0.0
2017-Dec-15 17:00N 45°35' W 122°46'0 0.0
2017-Dec-15 16:30N 45°35' W 122°46'0 0.0
2017-Dec-15 16:00N 45°35' W 122°46'0 0.0
2017-Dec-15 15:30N 45°35' W 122°46'0 0.0
2017-Dec-15 15:00N 45°35' W 122°46'0 0.0
2017-Dec-15 14:30N 45°35' W 122°46'0 0.0
2017-Dec-15 13:54N 45°35' W 122°46'0 0.0
2017-Dec-15 13:30N 45°35' W 122°46'0 0.0
2017-Dec-15 12:23N 45°35' W 122°46'0 0.0
2017-Dec-15 12:00N 45°35' W 122°46'0 0.0
2017-Dec-15 11:30N 45°35' W 122°46'0 0.0
2017-Dec-15 11:00N 45°35' W 122°46'0 0.0
2017-Dec-15 10:30N 45°35' W 122°46'0 0.0
2017-Dec-15 09:52N 45°35' W 122°46'0 0.0
2017-Dec-15 09:20N 45°35' W 122°46'0 0.0
2017-Dec-15 09:00N 45°35' W 122°46'0 0.0
2017-Dec-15 08:30N 45°35' W 122°46'0 0.0
2017-Dec-15 08:00N 45°35' W 122°46'0 0.0
2017-Dec-15 07:30N 45°35' W 122°46'0 0.0
2017-Dec-15 07:00N 45°35' W 122°46'0 0.0
2017-Dec-15 06:28N 45°35' W 122°46'0 0.0
2017-Dec-15 06:00N 45°35' W 122°46'0 0.0
2017-Dec-15 05:05N 45°35' W 122°46'0 0.0
2017-Dec-15 05:00N 45°35' W 122°46'0 0.0
2017-Dec-15 04:30N 45°35' W 122°46'0 0.0
2017-Dec-15 04:00N 45°35' W 122°46'0 0.0
2017-Dec-15 02:30N 45°35' W 122°46'0 0.0
2017-Dec-15 01:00N 45°35' W 122°46'0 0.0
2017-Dec-15 00:30N 45°35' W 122°46'0 0.0
2017-Dec-14 18:31N 45°35' W 122°46'0 0.1
2017-Dec-14 18:00N 45°35' W 122°46'0 0.0
2017-Dec-14 17:30N 45°35' W 122°46'0 0.0
2017-Dec-14 17:00N 45°35' W 122°46'2 4.7
2017-Dec-14 16:30N 45°33' W 122°43'0 0.1
2017-Dec-14 16:00N 45°33' W 122°43'2 2.3
2017-Dec-14 15:00N 45°35' W 122°45'0 0.3
2017-Dec-14 14:30N 45°35' W 122°46'0 0.0
2017-Dec-14 14:00N 45°35' W 122°46'0 0.0
2017-Dec-14 13:30N 45°35' W 122°46'2 3.2
2017-Dec-14 13:00N 45°34' W 122°44'4 8.0
2017-Dec-14 12:31N 45°31' W 122°40'2 3.3
2017-Dec-14 12:00N 45°29' W 122°40'0 0.1
2017-Dec-14 11:30N 45°29' W 122°40'2 4.0
2017-Dec-14 11:00N 45°31' W 122°40'2 3.1
2017-Dec-14 10:30N 45°32' W 122°41'3 7.0
2017-Dec-14 10:00N 45°35' W 122°45'4 6.3
2017-Dec-14 09:25N 45°38' W 122°47'2 5.4
2017-Dec-14 09:00N 45°39' W 122°44'3 6.2
2017-Dec-14 08:30N 45°37' W 122°40'3 5.9
2017-Dec-14 08:00N 45°36' W 122°36'4 8.0
2017-Dec-14 07:30N 45°35' W 122°30'4 8.0
2017-Dec-14 07:00N 45°34' W 122°25'4 7.9
2017-Dec-14 06:30N 45°33' W 122°20'4 7.9
2017-Dec-14 06:00N 45°33' W 122°14'7 0.3
2017-Dec-13 02:40N 45°36' W 122°04'8 6.8
2017-Dec-13 01:29N 45°33' W 122°15'3 6.8
2017-Dec-13 01:00N 45°33' W 122°20'3 6.5
2017-Dec-13 00:30N 45°34' W 122°24'3 5.2
2017-Dec-13 00:00N 45°34' W 122°28'1 2.0
2017-Dec-12 23:30N 45°35' W 122°29'4 7.6
2017-Dec-12 23:00N 45°36' W 122°34'4 7.9
2017-Dec-12 22:30N 45°37' W 122°39'4 8.2
2017-Dec-12 22:00N 45°39' W 122°45'3 5.6
2017-Dec-12 21:30N 45°37' W 122°47'4 7.4
2017-Dec-12 21:00N 45°34' W 122°44'0 0.2
2017-Dec-12 20:31N 45°34' W 122°44'2 4.4
2017-Dec-12 20:01N 45°33' W 122°41'3 6.4
2017-Dec-12 19:30N 45°29' W 122°40'2 4.7
2017-Dec-12 19:00N 45°32' W 122°40'3 6.5
2017-Dec-12 18:31N 45°34' W 122°44'3 6.9
2017-Dec-12 18:01N 45°32' W 122°40'2 4.7
2017-Dec-12 17:30N 45°29' W 122°40'3 5.3
2017-Dec-12 17:00N 45°32' W 122°40'1 2.4
2017-Dec-12 16:31N 45°33' W 122°41'4 7.4
2017-Dec-12 16:00N 45°35' W 122°46'0 0.0
2017-Dec-12 15:31N 45°35' W 122°46'0 0.0
2017-Dec-12 15:00N 45°35' W 122°46'0 0.0
2017-Dec-12 14:31N 45°35' W 122°46'0 0.0
2017-Dec-12 14:01N 45°35' W 122°46'0 0.0
2017-Dec-12 13:31N 45°35' W 122°46'0 0.0
2017-Dec-12 13:01N 45°35' W 122°46'0 0.0
2017-Dec-12 12:31N 45°35' W 122°46'0 0.0
2017-Dec-12 12:01N 45°35' W 122°46'0 0.0
2017-Dec-12 11:31N 45°35' W 122°46'0 0.0
2017-Dec-12 11:00N 45°35' W 122°46'0 0.0
2017-Dec-12 10:31N 45°35' W 122°46'0 0.0
2017-Dec-12 10:01N 45°35' W 122°46'0 0.0
2017-Dec-12 09:30N 45°35' W 122°46'0 0.0
2017-Dec-12 09:00N 45°35' W 122°46'0 0.0
2017-Dec-12 08:31N 45°35' W 122°46'0 0.0
2017-Dec-12 08:00N 45°35' W 122°46'0 0.0
2017-Dec-12 07:30N 45°35' W 122°46'0 0.0
2017-Dec-12 07:00N 45°35' W 122°46'0 0.0
2017-Dec-12 06:30N 45°35' W 122°46'0 0.0
2017-Dec-12 06:00N 45°35' W 122°46'0 0.0
2017-Dec-12 05:15N 45°35' W 122°46'0 0.0
2017-Dec-12 05:00N 45°35' W 122°46'0 0.0
2017-Dec-12 04:31N 45°35' W 122°46'0 0.0
2017-Dec-12 04:01N 45°35' W 122°46'0 0.0
2017-Dec-12 03:29N 45°35' W 122°46'0 0.0
2017-Dec-12 03:00N 45°35' W 122°46'1 1.9
2017-Dec-12 02:27N 45°36' W 122°46'2 3.9
2017-Dec-12 02:00N 45°37' W 122°47'1 1.8
2017-Dec-12 01:24N 45°38' W 122°47'2 5.2
2017-Dec-12 01:01N 45°40' W 122°46'3 5.3
2017-Dec-12 00:30N 45°43' W 122°46'3 5.4
2017-Dec-12 00:00N 45°46' W 122°46'3 5.4
2017-Dec-11 23:31N 45°48' W 122°47'3 5.1
2017-Dec-11 23:01N 45°51' W 122°47'2 4.9
2017-Dec-11 22:30N 45°53' W 122°48'3 5.1
2017-Dec-11 22:00N 45°56' W 122°48'2 5.0
2017-Dec-11 21:30N 45°58' W 122°49'3 5.5
2017-Dec-11 21:01N 46°00' W 122°51'3 5.5
2017-Dec-11 20:30N 46°03' W 122°53'3 5.5
2017-Dec-11 20:00N 46°05' W 122°55'3 5.9
2017-Dec-11 19:30N 46°07' W 122°59'4 7.4
2017-Dec-11 19:00N 46°09' W 123°03'3 5.3
2017-Dec-11 18:30N 46°11' W 123°06'3 6.3
2017-Dec-11 18:00N 46°11' W 123°10'3 6.8
2017-Dec-11 17:30N 46°09' W 123°15'3 7.0
2017-Dec-11 17:00N 46°09' W 123°20'3 6.8
2017-Dec-11 16:30N 46°10' W 123°24'3 6.5
2017-Dec-11 16:00N 46°13' W 123°26'3 7.0
2017-Dec-11 15:30N 46°16' W 123°28'3 6.9
2017-Dec-11 15:00N 46°15' W 123°33'4 7.4
2017-Dec-11 14:30N 46°16' W 123°38'4 7.4
2017-Dec-11 14:00N 46°14' W 123°43'4 7.6
2017-Dec-11 13:30N 46°12' W 123°48'4 7.6
2017-Dec-11 13:01N 46°11' W 123°53'3 6.2
2017-Dec-11 12:31N 46°13' W 123°57'2 4.2
2017-Dec-11 12:01N 46°14' W 123°59'3 6.6
2017-Dec-11 11:31N 46°12' W 123°56'5 9.2
2017-Dec-11 11:01N 46°12' W 123°49'0 0.0
2017-Dec-11 10:31N 46°12' W 123°49'0 0.0
2017-Dec-11 10:01N 46°12' W 123°49'0 0.0
2017-Dec-11 09:31N 46°12' W 123°49'0 0.0
2017-Dec-11 09:00N 46°12' W 123°49'0 0.0
2017-Dec-11 08:30N 46°12' W 123°49'0 0.0
2017-Dec-11 08:01N 46°12' W 123°49'0 0.0
2017-Dec-11 07:31N 46°12' W 123°49'0 0.0
2017-Dec-11 07:00N 46°12' W 123°49'0 0.0
2017-Dec-11 06:30N 46°12' W 123°49'0 0.0
2017-Dec-11 06:00N 46°12' W 123°49'0 0.0
2017-Dec-11 05:30N 46°12' W 123°49'0 0.0
2017-Dec-11 05:00N 46°12' W 123°49'0 0.0
2017-Dec-11 04:31N 46°12' W 123°49'0 0.0
2017-Dec-11 04:00N 46°12' W 123°49'0 0.1
2017-Dec-11 03:30N 46°12' W 123°49'0 0.1
2017-Dec-11 03:00N 46°12' W 123°49'2 4.5
2017-Dec-11 02:30N 46°13' W 123°46'5 9.2
2017-Dec-11 02:00N 46°15' W 123°41'5 9.4
2017-Dec-11 01:30N 46°15' W 123°34'4 9.0
2017-Dec-11 01:01N 46°16' W 123°27'816.0
2017-Dec-11 00:29N 46°09' W 123°21'1 2.7
2017-Dec-11 00:01N 46°09' W 123°19'611.7
2017-Dec-10 23:30N 46°11' W 123°11'611.1
2017-Dec-10 23:01N 46°09' W 123°03'611.8
2017-Dec-10 22:31N 46°06' W 122°57'510.9
2017-Dec-10 22:00N 46°01' W 122°52'611.4
2017-Dec-10 21:30N 45°56' W 122°48'611.2
2017-Dec-10 21:01N 45°51' W 122°47'510.5
2017-Dec-10 20:31N 45°46' W 122°46'510.8
2017-Dec-10 20:01N 45°40' W 122°46'3 4.9
2017-Dec-10 19:23N 45°37' W 122°47'0 0.9
2017-Dec-10 19:01N 45°37' W 122°47'2 4.9
2017-Dec-10 18:31N 45°35' W 122°46'0 0.0
2017-Dec-10 18:00N 45°35' W 122°46'0 0.0
2017-Dec-10 17:31N 45°35' W 122°46'0 0.0
2017-Dec-10 17:01N 45°35' W 122°46'0 0.0
2017-Dec-10 16:31N 45°35' W 122°46'0 0.0
2017-Dec-10 16:00N 45°35' W 122°46'0 0.0
2017-Dec-10 15:30N 45°35' W 122°46'0 0.0
2017-Dec-10 14:56N 45°35' W 122°46'0 0.0
2017-Dec-10 14:31N 45°35' W 122°46'0 0.0
2017-Dec-10 14:00N 45°35' W 122°46'0 0.0
2017-Dec-10 13:22N 45°35' W 122°46'0 0.0
2017-Dec-10 13:00N 45°35' W 122°46'0 0.0
2017-Dec-10 12:30N 45°35' W 122°46'0 0.0
2017-Dec-10 12:00N 45°35' W 122°46'0 0.0
2017-Dec-10 11:31N 45°35' W 122°46'0 0.0
2017-Dec-10 11:01N 45°35' W 122°46'0 0.0
2017-Dec-10 10:28N 45°35' W 122°46'0 0.0
2017-Dec-10 10:01N 45°35' W 122°46'0 0.0
2017-Dec-10 09:31N 45°35' W 122°46'0 0.0
2017-Dec-10 09:00N 45°35' W 122°46'0 0.0
2017-Dec-10 08:31N 45°35' W 122°46'0 0.0
2017-Dec-10 08:00N 45°35' W 122°46'0 0.0
2017-Dec-10 07:31N 45°35' W 122°46'0 0.0
2017-Dec-10 07:01N 45°35' W 122°46'0 0.0
2017-Dec-10 06:31N 45°35' W 122°46'0 0.0
2017-Dec-10 06:01N 45°35' W 122°46'0 0.8
2017-Dec-10 05:30N 45°35' W 122°46'0 0.3
2017-Dec-10 05:00N 45°35' W 122°46'3 6.1
2017-Dec-10 04:31N 45°38' W 122°47'3 5.7
2017-Dec-10 04:01N 45°41' W 122°47'3 5.9
2017-Dec-10 03:31N 45°44' W 122°46'3 5.8
2017-Dec-10 03:00N 45°47' W 122°46'3 5.7
2017-Dec-10 02:31N 45°50' W 122°48'3 5.2
2017-Dec-10 02:01N 45°52' W 122°47'3 5.2
2017-Dec-10 01:31N 45°55' W 122°49'2 5.0
2017-Dec-10 01:01N 45°57' W 122°49'3 5.2
2017-Dec-10 00:31N 45°59' W 122°51'2 4.3
2017-Dec-10 00:01N 46°01' W 122°52'0 0.9
2017-Dec-09 23:30N 46°01' W 122°52'0 0.0
2017-Dec-09 23:01N 46°01' W 122°52'0 0.0
2017-Dec-09 22:31N 46°01' W 122°52'0 0.1
2017-Dec-09 22:00N 46°01' W 122°52'0 0.1
2017-Dec-09 21:31N 46°01' W 122°52'0 0.1
2017-Dec-09 21:00N 46°01' W 122°52'0 0.0
2017-Dec-09 20:31N 46°01' W 122°52'0 0.0
2017-Dec-09 20:00N 46°01' W 122°52'0 0.0
2017-Dec-09 19:31N 46°01' W 122°52'4 5.9
2017-Dec-09 18:55N 45°58' W 122°49'4 8.7
2017-Dec-09 18:30N 45°54' W 122°48'4 8.5
2017-Dec-09 18:01N 45°50' W 122°47'4 8.2
2017-Dec-09 17:29N 45°46' W 122°46'4 8.4
2017-Dec-09 17:00N 45°42' W 122°46'4 7.7
2017-Dec-09 16:30N 45°38' W 122°47'3 6.5
2017-Dec-09 15:58N 45°35' W 122°46'0 0.0
2017-Dec-09 15:31N 45°35' W 122°46'0 0.0
2017-Dec-09 15:01N 45°35' W 122°46'0 0.0
2017-Dec-09 14:18N 45°35' W 122°46'0 0.0
2017-Dec-09 13:53N 45°35' W 122°46'0 0.0
2017-Dec-09 13:30N 45°35' W 122°46'0 0.0
2017-Dec-09 13:00N 45°35' W 122°46'0 0.0
2017-Dec-09 12:31N 45°35' W 122°46'0 0.0
2017-Dec-09 12:01N 45°35' W 122°46'0 0.0
2017-Dec-09 11:30N 45°35' W 122°46'0 0.0
2017-Dec-09 11:01N 45°35' W 122°46'0 0.0
2017-Dec-09 10:31N 45°35' W 122°46'0 0.0
2017-Dec-09 10:01N 45°35' W 122°46'0 0.0
2017-Dec-09 09:30N 45°35' W 122°46'0 0.0
2017-Dec-09 09:01N 45°35' W 122°46'0 0.0
2017-Dec-09 08:30N 45°35' W 122°46'0 0.0
2017-Dec-09 08:01N 45°35' W 122°46'0 0.0
2017-Dec-09 07:31N 45°35' W 122°46'0 0.0
2017-Dec-09 07:00N 45°35' W 122°46'0 0.0
2017-Dec-09 06:09N 45°35' W 122°46'0 0.0
2017-Dec-09 06:01N 45°35' W 122°46'0 0.0
2017-Dec-09 05:31N 45°35' W 122°46'0 0.0
2017-Dec-09 05:01N 45°35' W 122°46'0 0.0
2017-Dec-09 04:31N 45°35' W 122°46'0 0.0
2017-Dec-09 04:01N 45°35' W 122°46'0 0.0
2017-Dec-09 03:31N 45°35' W 122°46'0 0.0
2017-Dec-09 03:01N 45°35' W 122°46'0 0.0
2017-Dec-09 02:31N 45°35' W 122°46'0 0.0
2017-Dec-09 02:01N 45°35' W 122°46'0 0.0
2017-Dec-09 01:30N 45°35' W 122°46'0 0.0
2017-Dec-09 01:00N 45°35' W 122°46'0 0.0
2017-Dec-09 00:31N 45°35' W 122°46'0 0.0
2017-Dec-09 00:01N 45°35' W 122°46'0 0.0
2017-Dec-08 23:30N 45°35' W 122°46'0 0.0
2017-Dec-08 23:01N 45°35' W 122°46'0 0.0
2017-Dec-08 22:30N 45°35' W 122°46'0 0.0
2017-Dec-08 22:01N 45°35' W 122°46'0 0.0
2017-Dec-08 21:31N 45°35' W 122°46'0 0.0
2017-Dec-08 21:01N 45°35' W 122°46'0 0.0
2017-Dec-08 20:31N 45°35' W 122°46'0 0.0
2017-Dec-08 20:00N 45°35' W 122°46'0 0.0
2017-Dec-08 19:30N 45°35' W 122°46'0 0.0
2017-Dec-08 19:00N 45°35' W 122°46'0 0.0
2017-Dec-08 18:30N 45°35' W 122°46'0 0.0
2017-Dec-08 18:01N 45°35' W 122°46'0 0.0
2017-Dec-08 17:31N 45°35' W 122°46'0 0.0
2017-Dec-08 17:00N 45°35' W 122°46'0 0.0
2017-Dec-08 16:31N 45°35' W 122°46'0 0.0
2017-Dec-08 16:00N 45°35' W 122°46'0 0.0
2017-Dec-08 15:30N 45°35' W 122°46'0 0.0
2017-Dec-08 15:00N 45°35' W 122°46'0 0.0
2017-Dec-08 14:30N 45°35' W 122°46'0 0.0
2017-Dec-08 14:00N 45°35' W 122°46'0 0.0
2017-Dec-08 13:30N 45°35' W 122°46'0 0.0
2017-Dec-08 13:00N 45°35' W 122°46'0 0.0
2017-Dec-08 12:30N 45°35' W 122°46'0 0.0
2017-Dec-08 12:00N 45°35' W 122°46'0 0.0
2017-Dec-08 11:31N 45°35' W 122°46'0 0.0
2017-Dec-08 11:01N 45°35' W 122°46'0 0.0
2017-Dec-08 10:30N 45°35' W 122°46'0 0.0
2017-Dec-08 10:00N 45°35' W 122°46'0 0.0
2017-Dec-08 09:31N 45°35' W 122°46'0 0.0
2017-Dec-08 08:46N 45°35' W 122°46'0 0.0
2017-Dec-08 08:28N 45°35' W 122°46'0 0.0
2017-Dec-08 08:01N 45°35' W 122°46'0 0.0
2017-Dec-08 07:30N 45°35' W 122°46'0 0.0
2017-Dec-08 07:00N 45°35' W 122°46'0 0.0
2017-Dec-08 06:31N 45°35' W 122°46'0 0.0
2017-Dec-08 06:00N 45°35' W 122°46'0 0.0
2017-Dec-08 05:31N 45°35' W 122°46'0 0.0
2017-Dec-08 05:01N 45°35' W 122°46'0 0.0
2017-Dec-08 04:31N 45°35' W 122°46'0 0.0
2017-Dec-08 04:00N 45°35' W 122°46'0 0.0
2017-Dec-08 03:30N 45°35' W 122°46'3 5.1
2017-Dec-08 03:00N 45°37' W 122°47'5 9.2
2017-Dec-08 02:30N 45°42' W 122°46'5 9.4
2017-Dec-08 02:00N 45°46' W 122°46'5 9.0
2017-Dec-08 01:30N 45°51' W 122°47'5 9.3
2017-Dec-08 01:00N 45°55' W 122°49'5 9.2
2017-Dec-08 00:30N 45°60' W 122°51'  
Track history (hours):
 
Tides and Currents Weather Stations Pressure Air Temp Water Temp Dewpoint Dewpoint Depression Visibility Wind Speed Wind Dir Waves Ship Positions

Willamette Champion

Owner: Harley Marine Services, INC, Seattle, WA. More information available from US FCC via Universal Licensing System and Coast Guard Vessel Documentation Center.

Last reported at 2017-Dec-18 00:07 UTC. Time now 2017-Dec-18 16:59 UTC.
Position N 45°36' W 122°04'.

Length 27 m.

Type: Towing. MMSI: 2533572.

Date/timePositionNaut miles runAvg speedWind from/ knotsBaromVisibWave heightAir tempDewpointWater temp
2017-Dec-18 00:07N 45°36' W 122°04'1 8.4
2017-Dec-17 23:58N 45°35' W 122°05'5 7.8
2017-Dec-17 23:21N 45°34' W 122°12'3 8.1
2017-Dec-17 23:00N 45°33' W 122°16'4 7.5
2017-Dec-17 22:30N 45°34' W 122°21'3 6.3
2017-Dec-17 22:00N 45°34' W 122°25'4 7.0
2017-Dec-17 21:30N 45°35' W 122°30'4 7.4
2017-Dec-17 21:00N 45°36' W 122°35'4 7.7
2017-Dec-17 20:30N 45°37' W 122°41'4 7.9
2017-Dec-17 20:00N 45°39' W 122°45'3 7.0
2017-Dec-17 19:30N 45°36' W 122°47'1 2.2
2017-Dec-17 19:00N 45°35' W 122°46'0 0.0
2017-Dec-17 18:30N 45°35' W 122°46'0 0.0
2017-Dec-17 18:00N 45°35' W 122°46'0 0.0
2017-Dec-17 17:03N 45°35' W 122°46'0 0.0
2017-Dec-17 17:00N 45°35' W 122°46'0 0.0
2017-Dec-17 16:30N 45°35' W 122°46'0 0.0
2017-Dec-17 16:00N 45°35' W 122°46'0 0.0
2017-Dec-17 15:30N 45°35' W 122°46'0 0.0
2017-Dec-17 15:01N 45°35' W 122°46'0 0.0
2017-Dec-17 14:30N 45°35' W 122°46'0 0.0
2017-Dec-17 14:00N 45°35' W 122°46'0 0.0
2017-Dec-17 13:31N 45°35' W 122°46'0 0.0
2017-Dec-17 13:00N 45°35' W 122°46'0 0.0
2017-Dec-17 12:30N 45°35' W 122°46'0 0.0
2017-Dec-17 12:01N 45°35' W 122°46'0 0.0
2017-Dec-17 11:30N 45°35' W 122°46'0 0.0
2017-Dec-17 11:00N 45°35' W 122°46'0 0.0
2017-Dec-17 10:31N 45°35' W 122°46'0 0.0
2017-Dec-17 10:00N 45°35' W 122°46'0 0.0
2017-Dec-17 09:30N 45°35' W 122°46'0 0.0
2017-Dec-17 09:00N 45°35' W 122°46'0 0.0
2017-Dec-17 08:30N 45°35' W 122°46'0 0.0
2017-Dec-17 08:00N 45°35' W 122°46'0 0.0
2017-Dec-17 07:30N 45°35' W 122°46'0 0.0
2017-Dec-17 07:01N 45°35' W 122°46'0 0.0
2017-Dec-17 06:30N 45°35' W 122°46'0 0.0
2017-Dec-17 06:00N 45°35' W 122°46'0 0.0
2017-Dec-17 05:30N 45°35' W 122°46'0 0.0
2017-Dec-17 05:00N 45°35' W 122°46'0 0.0
2017-Dec-17 04:30N 45°35' W 122°46'0 0.0
2017-Dec-17 03:52N 45°35' W 122°46'0 0.0
2017-Dec-17 03:30N 45°35' W 122°46'0 0.0
2017-Dec-17 03:00N 45°35' W 122°46'0 0.0
2017-Dec-17 02:30N 45°35' W 122°46'0 0.0
2017-Dec-17 02:01N 45°35' W 122°46'0 0.0
2017-Dec-17 01:30N 45°35' W 122°46'0 0.2
2017-Dec-17 01:00N 45°35' W 122°45'2 3.6
2017-Dec-17 00:25N 45°34' W 122°43'3 7.8
2017-Dec-17 00:00N 45°31' W 122°40'2 3.5
2017-Dec-16 23:30N 45°29' W 122°40'2 4.7
2017-Dec-16 23:00N 45°32' W 122°40'3 5.0
2017-Dec-16 22:30N 45°33' W 122°43'2 4.8
2017-Dec-16 22:00N 45°35' W 122°46'3 5.8
2017-Dec-16 21:30N 45°33' W 122°42'3 6.1
2017-Dec-16 21:00N 45°30' W 122°40'1 2.3
2017-Dec-16 20:30N 45°29' W 122°40'4 7.4
2017-Dec-16 20:00N 45°33' W 122°42'1 2.4
2017-Dec-16 19:30N 45°33' W 122°43'0 0.2
2017-Dec-16 19:01N 45°33' W 122°43'0 0.2
2017-Dec-16 18:30N 45°33' W 122°43'0 0.3
2017-Dec-16 18:01N 45°33' W 122°43'2 4.6
2017-Dec-16 17:30N 45°35' W 122°45'0 0.2
2017-Dec-16 17:00N 45°35' W 122°46'0 0.0
2017-Dec-16 16:31N 45°35' W 122°46'0 0.0
2017-Dec-16 16:00N 45°35' W 122°46'0 0.0
2017-Dec-16 15:30N 45°35' W 122°46'0 0.0
2017-Dec-16 15:00N 45°35' W 122°46'0 0.0
2017-Dec-16 14:30N 45°35' W 122°46'0 0.0
2017-Dec-16 14:00N 45°35' W 122°46'0 0.0
2017-Dec-16 13:30N 45°35' W 122°46'0 0.0
2017-Dec-16 13:00N 45°35' W 122°46'0 0.0
2017-Dec-16 12:30N 45°35' W 122°46'0 0.0
2017-Dec-16 12:00N 45°35' W 122°46'0 0.0
2017-Dec-16 11:30N 45°35' W 122°46'0 0.0
2017-Dec-16 11:00N 45°35' W 122°46'0 0.0
2017-Dec-16 10:30N 45°35' W 122°46'0 0.0
2017-Dec-16 10:00N 45°35' W 122°46'0 0.0
2017-Dec-16 09:30N 45°35' W 122°46'0 0.0
2017-Dec-16 09:00N 45°35' W 122°46'0 0.0
2017-Dec-16 08:30N 45°35' W 122°46'0 0.0
2017-Dec-16 08:00N 45°35' W 122°46'0 0.0
2017-Dec-16 07:30N 45°35' W 122°46'0 0.0
2017-Dec-16 07:00N 45°35' W 122°46'0 0.0
2017-Dec-16 06:30N 45°35' W 122°46'0 0.0
2017-Dec-16 06:00N 45°35' W 122°46'0 0.0
2017-Dec-16 05:30N 45°35' W 122°46'0 0.0
2017-Dec-16 04:54N 45°35' W 122°46'0 0.0
2017-Dec-16 04:30N 45°35' W 122°46'0 0.0
2017-Dec-16 04:00N 45°35' W 122°46'0 0.0
2017-Dec-16 03:30N 45°35' W 122°46'0 0.0
2017-Dec-16 03:00N 45°35' W 122°46'0 0.0
2017-Dec-16 02:30N 45°35' W 122°46'0 0.0
2017-Dec-16 02:00N 45°35' W 122°46'0 0.0
2017-Dec-16 01:30N 45°35' W 122°46'0 0.0
2017-Dec-16 01:00N 45°35' W 122°46'0 0.0
2017-Dec-16 00:30N 45°35' W 122°46'0 0.0
2017-Dec-16 00:00N 45°35' W 122°46'0 0.0
2017-Dec-15 23:30N 45°35' W 122°46'0 0.0
2017-Dec-15 22:52N 45°35' W 122°46'0 0.0
2017-Dec-15 21:20N 45°35' W 122°46'0 0.0
2017-Dec-15 21:00N 45°35' W 122°46'0 0.0
2017-Dec-15 20:16N 45°35' W 122°46'0 0.0
2017-Dec-15 20:00N 45°35' W 122°46'0 0.0
2017-Dec-15 19:21N 45°35' W 122°46'0 0.0
2017-Dec-15 19:00N 45°35' W 122°46'0 0.0
2017-Dec-15 18:30N 45°35' W 122°46'0 0.0
2017-Dec-15 18:00N 45°35' W 122°46'0 0.0
2017-Dec-15 17:30N 45°35' W 122°46'0 0.0
2017-Dec-15 17:00N 45°35' W 122°46'0 0.0
2017-Dec-15 16:30N 45°35' W 122°46'0 0.0
2017-Dec-15 16:00N 45°35' W 122°46'0 0.0
2017-Dec-15 15:30N 45°35' W 122°46'0 0.0
2017-Dec-15 15:00N 45°35' W 122°46'0 0.0
2017-Dec-15 14:30N 45°35' W 122°46'0 0.0
2017-Dec-15 13:54N 45°35' W 122°46'0 0.0
2017-Dec-15 13:30N 45°35' W 122°46'0 0.0
2017-Dec-15 12:23N 45°35' W 122°46'0 0.0
2017-Dec-15 12:00N 45°35' W 122°46'0 0.0
2017-Dec-15 11:30N 45°35' W 122°46'0 0.0
2017-Dec-15 11:00N 45°35' W 122°46'0 0.0
2017-Dec-15 10:30N 45°35' W 122°46'0 0.0
2017-Dec-15 09:52N 45°35' W 122°46'0 0.0
2017-Dec-15 09:20N 45°35' W 122°46'0 0.0
2017-Dec-15 09:00N 45°35' W 122°46'0 0.0
2017-Dec-15 08:30N 45°35' W 122°46'0 0.0
2017-Dec-15 08:00N 45°35' W 122°46'0 0.0
2017-Dec-15 07:30N 45°35' W 122°46'0 0.0
2017-Dec-15 07:00N 45°35' W 122°46'0 0.0
2017-Dec-15 06:28N 45°35' W 122°46'0 0.0
2017-Dec-15 06:00N 45°35' W 122°46'0 0.0
2017-Dec-15 05:05N 45°35' W 122°46'0 0.0
2017-Dec-15 05:00N 45°35' W 122°46'0 0.0
2017-Dec-15 04:30N 45°35' W 122°46'0 0.0
2017-Dec-15 04:00N 45°35' W 122°46'0 0.0
2017-Dec-15 02:30N 45°35' W 122°46'0 0.0
2017-Dec-15 01:00N 45°35' W 122°46'0 0.0
2017-Dec-15 00:30N 45°35' W 122°46'0 0.0
2017-Dec-14 18:31N 45°35' W 122°46'0 0.1
2017-Dec-14 18:00N 45°35' W 122°46'0 0.0
2017-Dec-14 17:30N 45°35' W 122°46'0 0.0
2017-Dec-14 17:00N 45°35' W 122°46'2 4.7
2017-Dec-14 16:30N 45°33' W 122°43'0 0.1
2017-Dec-14 16:00N 45°33' W 122°43'2 2.3
2017-Dec-14 15:00N 45°35' W 122°45'0 0.3
2017-Dec-14 14:30N 45°35' W 122°46'0 0.0
2017-Dec-14 14:00N 45°35' W 122°46'0 0.0
2017-Dec-14 13:30N 45°35' W 122°46'2 3.2
2017-Dec-14 13:00N 45°34' W 122°44'4 8.0
2017-Dec-14 12:31N 45°31' W 122°40'2 3.3
2017-Dec-14 12:00N 45°29' W 122°40'0 0.1
2017-Dec-14 11:30N 45°29' W 122°40'2 4.0
2017-Dec-14 11:00N 45°31' W 122°40'2 3.1
2017-Dec-14 10:30N 45°32' W 122°41'3 7.0
2017-Dec-14 10:00N 45°35' W 122°45'4 6.3
2017-Dec-14 09:25N 45°38' W 122°47'2 5.4
2017-Dec-14 09:00N 45°39' W 122°44'3 6.2
2017-Dec-14 08:30N 45°37' W 122°40'3 5.9
2017-Dec-14 08:00N 45°36' W 122°36'4 8.0
2017-Dec-14 07:30N 45°35' W 122°30'4 8.0
2017-Dec-14 07:00N 45°34' W 122°25'4 7.9
2017-Dec-14 06:30N 45°33' W 122°20'4 7.9
2017-Dec-14 06:00N 45°33' W 122°14'7 0.3
2017-Dec-13 02:40N 45°36' W 122°04'8 6.8
2017-Dec-13 01:29N 45°33' W 122°15'3 6.8
2017-Dec-13 01:00N 45°33' W 122°20'3 6.5
2017-Dec-13 00:30N 45°34' W 122°24'3 5.2
2017-Dec-13 00:00N 45°34' W 122°28'1 2.0
2017-Dec-12 23:30N 45°35' W 122°29'4 7.6
2017-Dec-12 23:00N 45°36' W 122°34'4 7.9
2017-Dec-12 22:30N 45°37' W 122°39'4 8.2
2017-Dec-12 22:00N 45°39' W 122°45'3 5.6
2017-Dec-12 21:30N 45°37' W 122°47'4 7.4
2017-Dec-12 21:00N 45°34' W 122°44'0 0.2
2017-Dec-12 20:31N 45°34' W 122°44'2 4.4
2017-Dec-12 20:01N 45°33' W 122°41'3 6.4
2017-Dec-12 19:30N 45°29' W 122°40'2 4.7
2017-Dec-12 19:00N 45°32' W 122°40'3 6.5
2017-Dec-12 18:31N 45°34' W 122°44'3 6.9
2017-Dec-12 18:01N 45°32' W 122°40'2 4.7
2017-Dec-12 17:30N 45°29' W 122°40'3 5.3
2017-Dec-12 17:00N 45°32' W 122°40'1 2.4
2017-Dec-12 16:31N 45°33' W 122°41'4 7.4
2017-Dec-12 16:00N 45°35' W 122°46'0 0.0
2017-Dec-12 15:31N 45°35' W 122°46'0 0.0
2017-Dec-12 15:00N 45°35' W 122°46'0 0.0
2017-Dec-12 14:31N 45°35' W 122°46'0 0.0
2017-Dec-12 14:01N 45°35' W 122°46'0 0.0
2017-Dec-12 13:31N 45°35' W 122°46'0 0.0
2017-Dec-12 13:01N 45°35' W 122°46'0 0.0
2017-Dec-12 12:31N 45°35' W 122°46'0 0.0
2017-Dec-12 12:01N 45°35' W 122°46'0 0.0
2017-Dec-12 11:31N 45°35' W 122°46'0 0.0
2017-Dec-12 11:00N 45°35' W 122°46'0 0.0
2017-Dec-12 10:31N 45°35' W 122°46'0 0.0
2017-Dec-12 10:01N 45°35' W 122°46'0 0.0
2017-Dec-12 09:30N 45°35' W 122°46'0 0.0
2017-Dec-12 09:00N 45°35' W 122°46'0 0.0
2017-Dec-12 08:31N 45°35' W 122°46'0 0.0
2017-Dec-12 08:00N 45°35' W 122°46'0 0.0
2017-Dec-12 07:30N 45°35' W 122°46'0 0.0
2017-Dec-12 07:00N 45°35' W 122°46'0 0.0
2017-Dec-12 06:30N 45°35' W 122°46'0 0.0
2017-Dec-12 06:00N 45°35' W 122°46'0 0.0
2017-Dec-12 05:15N 45°35' W 122°46'0 0.0
2017-Dec-12 05:00N 45°35' W 122°46'0 0.0
2017-Dec-12 04:31N 45°35' W 122°46'0 0.0
2017-Dec-12 04:01N 45°35' W 122°46'0 0.0
2017-Dec-12 03:29N 45°35' W 122°46'0 0.0
2017-Dec-12 03:00N 45°35' W 122°46'1 1.9
2017-Dec-12 02:27N 45°36' W 122°46'2 3.9
2017-Dec-12 02:00N 45°37' W 122°47'1 1.8
2017-Dec-12 01:24N 45°38' W 122°47'2 5.2
2017-Dec-12 01:01N 45°40' W 122°46'3 5.3
2017-Dec-12 00:30N 45°43' W 122°46'3 5.4
2017-Dec-12 00:00N 45°46' W 122°46'3 5.4
2017-Dec-11 23:31N 45°48' W 122°47'3 5.1
2017-Dec-11 23:01N 45°51' W 122°47'2 4.9
2017-Dec-11 22:30N 45°53' W 122°48'3 5.1
2017-Dec-11 22:00N 45°56' W 122°48'2 5.0
2017-Dec-11 21:30N 45°58' W 122°49'3 5.5
2017-Dec-11 21:01N 46°00' W 122°51'3 5.5
2017-Dec-11 20:30N 46°03' W 122°53'3 5.5
2017-Dec-11 20:00N 46°05' W 122°55'3 5.9
2017-Dec-11 19:30N 46°07' W 122°59'4 7.4
2017-Dec-11 19:00N 46°09' W 123°03'3 5.3
2017-Dec-11 18:30N 46°11' W 123°06'3 6.3
2017-Dec-11 18:00N 46°11' W 123°10'3 6.8
2017-Dec-11 17:30N 46°09' W 123°15'3 7.0
2017-Dec-11 17:00N 46°09' W 123°20'3 6.8
2017-Dec-11 16:30N 46°10' W 123°24'3 6.5
2017-Dec-11 16:00N 46°13' W 123°26'3 7.0
2017-Dec-11 15:30N 46°16' W 123°28'3 6.9
2017-Dec-11 15:00N 46°15' W 123°33'4 7.4
2017-Dec-11 14:30N 46°16' W 123°38'4 7.4
2017-Dec-11 14:00N 46°14' W 123°43'4 7.6
2017-Dec-11 13:30N 46°12' W 123°48'4 7.6
2017-Dec-11 13:01N 46°11' W 123°53'3 6.2
2017-Dec-11 12:31N 46°13' W 123°57'2 4.2
2017-Dec-11 12:01N 46°14' W 123°59'3 6.6
2017-Dec-11 11:31N 46°12' W 123°56'5 9.2
2017-Dec-11 11:01N 46°12' W 123°49'0 0.0
2017-Dec-11 10:31N 46°12' W 123°49'0 0.0
2017-Dec-11 10:01N 46°12' W 123°49'0 0.0
2017-Dec-11 09:31N 46°12' W 123°49'0 0.0
2017-Dec-11 09:00N 46°12' W 123°49'0 0.0
2017-Dec-11 08:30N 46°12' W 123°49'0 0.0
2017-Dec-11 08:01N 46°12' W 123°49'0 0.0
2017-Dec-11 07:31N 46°12' W 123°49'0 0.0
2017-Dec-11 07:00N 46°12' W 123°49'0 0.0
2017-Dec-11 06:30N 46°12' W 123°49'0 0.0
2017-Dec-11 06:00N 46°12' W 123°49'0 0.0
2017-Dec-11 05:30N 46°12' W 123°49'0 0.0
2017-Dec-11 05:00N 46°12' W 123°49'0 0.0
2017-Dec-11 04:31N 46°12' W 123°49'0 0.0
2017-Dec-11 04:00N 46°12' W 123°49'0 0.1
2017-Dec-11 03:30N 46°12' W 123°49'0 0.1
2017-Dec-11 03:00N 46°12' W 123°49'2 4.5
2017-Dec-11 02:30N 46°13' W 123°46'5 9.2
2017-Dec-11 02:00N 46°15' W 123°41'5 9.4
2017-Dec-11 01:30N 46°15' W 123°34'4 9.0
2017-Dec-11 01:01N 46°16' W 123°27'816.0
2017-Dec-11 00:29N 46°09' W 123°21'1 2.7
2017-Dec-11 00:01N 46°09' W 123°19'611.7
2017-Dec-10 23:30N 46°11' W 123°11'611.1
2017-Dec-10 23:01N 46°09' W 123°03'611.8
2017-Dec-10 22:31N 46°06' W 122°57'510.9
2017-Dec-10 22:00N 46°01' W 122°52'611.4
2017-Dec-10 21:30N 45°56' W 122°48'611.2
2017-Dec-10 21:01N 45°51' W 122°47'510.5
2017-Dec-10 20:31N 45°46' W 122°46'510.8
2017-Dec-10 20:01N 45°40' W 122°46'3 4.9
2017-Dec-10 19:23N 45°37' W 122°47'0 0.9
2017-Dec-10 19:01N 45°37' W 122°47'2 4.9
2017-Dec-10 18:31N 45°35' W 122°46'0 0.0
2017-Dec-10 18:00N 45°35' W 122°46'0 0.0
2017-Dec-10 17:31N 45°35' W 122°46'0 0.0
2017-Dec-10 17:01N 45°35' W 122°46'0 0.0
2017-Dec-10 16:31N 45°35' W 122°46'0 0.0
2017-Dec-10 16:00N 45°35' W 122°46'0 0.0
2017-Dec-10 15:30N 45°35' W 122°46'0 0.0
2017-Dec-10 14:56N 45°35' W 122°46'0 0.0
2017-Dec-10 14:31N 45°35' W 122°46'0 0.0
2017-Dec-10 14:00N 45°35' W 122°46'0 0.0
2017-Dec-10 13:22N 45°35' W 122°46'0 0.0
2017-Dec-10 13:00N 45°35' W 122°46'0 0.0
2017-Dec-10 12:30N 45°35' W 122°46'0 0.0
2017-Dec-10 12:00N 45°35' W 122°46'0 0.0
2017-Dec-10 11:31N 45°35' W 122°46'0 0.0
2017-Dec-10 11:01N 45°35' W 122°46'0 0.0
2017-Dec-10 10:28N 45°35' W 122°46'0 0.0
2017-Dec-10 10:01N 45°35' W 122°46'0 0.0
2017-Dec-10 09:31N 45°35' W 122°46'0 0.0
2017-Dec-10 09:00N 45°35' W 122°46'0 0.0
2017-Dec-10 08:31N 45°35' W 122°46'0 0.0
2017-Dec-10 08:00N 45°35' W 122°46'0 0.0
2017-Dec-10 07:31N 45°35' W 122°46'0 0.0
2017-Dec-10 07:01N 45°35' W 122°46'0 0.0
2017-Dec-10 06:31N 45°35' W 122°46'0 0.0
2017-Dec-10 06:01N 45°35' W 122°46'0 0.8
2017-Dec-10 05:30N 45°35' W 122°46'0 0.3
2017-Dec-10 05:00N 45°35' W 122°46'3 6.1
2017-Dec-10 04:31N 45°38' W 122°47'3 5.7
2017-Dec-10 04:01N 45°41' W 122°47'3 5.9
2017-Dec-10 03:31N 45°44' W 122°46'3 5.8
2017-Dec-10 03:00N 45°47' W 122°46'3 5.7
2017-Dec-10 02:31N 45°50' W 122°48'3 5.2
2017-Dec-10 02:01N 45°52' W 122°47'3 5.2
2017-Dec-10 01:31N 45°55' W 122°49'2 5.0
2017-Dec-10 01:01N 45°57' W 122°49'3 5.2
2017-Dec-10 00:31N 45°59' W 122°51'2 4.3
2017-Dec-10 00:01N 46°01' W 122°52'0 0.9
2017-Dec-09 23:30N 46°01' W 122°52'0 0.0
2017-Dec-09 23:01N 46°01' W 122°52'0 0.0
2017-Dec-09 22:31N 46°01' W 122°52'0 0.1
2017-Dec-09 22:00N 46°01' W 122°52'0 0.1
2017-Dec-09 21:31N 46°01' W 122°52'0 0.1
2017-Dec-09 21:00N 46°01' W 122°52'0 0.0
2017-Dec-09 20:31N 46°01' W 122°52'0 0.0
2017-Dec-09 20:00N 46°01' W 122°52'0 0.0
2017-Dec-09 19:31N 46°01' W 122°52'4 5.9
2017-Dec-09 18:55N 45°58' W 122°49'4 8.7
2017-Dec-09 18:30N 45°54' W 122°48'4 8.5
2017-Dec-09 18:01N 45°50' W 122°47'4 8.2
2017-Dec-09 17:29N 45°46' W 122°46'4 8.4
2017-Dec-09 17:00N 45°42' W 122°46'4 7.7
2017-Dec-09 16:30N 45°38' W 122°47'3 6.5
2017-Dec-09 15:58N 45°35' W 122°46'0 0.0
2017-Dec-09 15:31N 45°35' W 122°46'0 0.0
2017-Dec-09 15:01N 45°35' W 122°46'0 0.0
2017-Dec-09 14:18N 45°35' W 122°46'0 0.0
2017-Dec-09 13:53N 45°35' W 122°46'0 0.0
2017-Dec-09 13:30N 45°35' W 122°46'0 0.0
2017-Dec-09 13:00N 45°35' W 122°46'0 0.0
2017-Dec-09 12:31N 45°35' W 122°46'0 0.0
2017-Dec-09 12:01N 45°35' W 122°46'0 0.0
2017-Dec-09 11:30N 45°35' W 122°46'0 0.0
2017-Dec-09 11:01N 45°35' W 122°46'0 0.0
2017-Dec-09 10:31N 45°35' W 122°46'0 0.0
2017-Dec-09 10:01N 45°35' W 122°46'0 0.0
2017-Dec-09 09:30N 45°35' W 122°46'0 0.0
2017-Dec-09 09:01N 45°35' W 122°46'0 0.0
2017-Dec-09 08:30N 45°35' W 122°46'0 0.0
2017-Dec-09 08:01N 45°35' W 122°46'0 0.0
2017-Dec-09 07:31N 45°35' W 122°46'0 0.0
2017-Dec-09 07:00N 45°35' W 122°46'0 0.0
2017-Dec-09 06:09N 45°35' W 122°46'0 0.0
2017-Dec-09 06:01N 45°35' W 122°46'0 0.0
2017-Dec-09 05:31N 45°35' W 122°46'0 0.0
2017-Dec-09 05:01N 45°35' W 122°46'0 0.0
2017-Dec-09 04:31N 45°35' W 122°46'0 0.0
2017-Dec-09 04:01N 45°35' W 122°46'0 0.0
2017-Dec-09 03:31N 45°35' W 122°46'0 0.0
2017-Dec-09 03:01N 45°35' W 122°46'0 0.0
2017-Dec-09 02:31N 45°35' W 122°46'0 0.0
2017-Dec-09 02:01N 45°35' W 122°46'0 0.0
2017-Dec-09 01:30N 45°35' W 122°46'0 0.0
2017-Dec-09 01:00N 45°35' W 122°46'0 0.0
2017-Dec-09 00:31N 45°35' W 122°46'0 0.0
2017-Dec-09 00:01N 45°35' W 122°46'0 0.0
2017-Dec-08 23:30N 45°35' W 122°46'0 0.0
2017-Dec-08 23:01N 45°35' W 122°46'0 0.0
2017-Dec-08 22:30N 45°35' W 122°46'0 0.0
2017-Dec-08 22:01N 45°35' W 122°46'0 0.0
2017-Dec-08 21:31N 45°35' W 122°46'0 0.0
2017-Dec-08 21:01N 45°35' W 122°46'0 0.0
2017-Dec-08 20:31N 45°35' W 122°46'0 0.0
2017-Dec-08 20:00N 45°35' W 122°46'0 0.0
2017-Dec-08 19:30N 45°35' W 122°46'0 0.0
2017-Dec-08 19:00N 45°35' W 122°46'0 0.0
2017-Dec-08 18:30N 45°35' W 122°46'0 0.0
2017-Dec-08 18:01N 45°35' W 122°46'0 0.0
2017-Dec-08 17:31N 45°35' W 122°46'0 0.0
2017-Dec-08 17:00N 45°35' W 122°46'0 0.0
2017-Dec-08 16:31N 45°35' W 122°46'0 0.0
2017-Dec-08 16:00N 45°35' W 122°46'0 0.0
2017-Dec-08 15:30N 45°35' W 122°46'0 0.0
2017-Dec-08 15:00N 45°35' W 122°46'0 0.0
2017-Dec-08 14:30N 45°35' W 122°46'0 0.0
2017-Dec-08 14:00N 45°35' W 122°46'0 0.0
2017-Dec-08 13:30N 45°35' W 122°46'0 0.0
2017-Dec-08 13:00N 45°35' W 122°46'0 0.0
2017-Dec-08 12:30N 45°35' W 122°46'0 0.0
2017-Dec-08 12:00N 45°35' W 122°46'0 0.0
2017-Dec-08 11:31N 45°35' W 122°46'0 0.0
2017-Dec-08 11:01N 45°35' W 122°46'0 0.0
2017-Dec-08 10:30N 45°35' W 122°46'0 0.0
2017-Dec-08 10:00N 45°35' W 122°46'0 0.0
2017-Dec-08 09:31N 45°35' W 122°46'0 0.0
2017-Dec-08 08:46N 45°35' W 122°46'0 0.0
2017-Dec-08 08:28N 45°35' W 122°46'0 0.0
2017-Dec-08 08:01N 45°35' W 122°46'0 0.0
2017-Dec-08 07:30N 45°35' W 122°46'0 0.0
2017-Dec-08 07:00N 45°35' W 122°46'0 0.0
2017-Dec-08 06:31N 45°35' W 122°46'0 0.0
2017-Dec-08 06:00N 45°35' W 122°46'0 0.0
2017-Dec-08 05:31N 45°35' W 122°46'0 0.0
2017-Dec-08 05:01N 45°35' W 122°46'0 0.0
2017-Dec-08 04:31N 45°35' W 122°46'0 0.0
2017-Dec-08 04:00N 45°35' W 122°46'0 0.0
2017-Dec-08 03:30N 45°35' W 122°46'3 5.1
2017-Dec-08 03:00N 45°37' W 122°47'5 9.2
2017-Dec-08 02:30N 45°42' W 122°46'5 9.4
2017-Dec-08 02:00N 45°46' W 122°46'5 9.0
2017-Dec-08 01:30N 45°51' W 122°47'5 9.3
2017-Dec-08 01:00N 45°55' W 122°49'5 9.2
2017-Dec-08 00:30N 45°60' W 122°51'  

Dump ship's entire track history